createdAt,value
2022-08-28T00:01:02.669Z,18.68
2022-08-28T00:06:04.622Z,18.70
2022-08-28T00:11:06.378Z,18.72
2022-08-28T00:16:08.115Z,18.67
2022-08-28T00:21:10.326Z,18.70
2022-08-28T00:26:32.061Z,18.66
2022-08-28T00:31:39.492Z,18.64
2022-08-28T00:36:41.489Z,18.72
2022-08-28T00:41:43.527Z,18.73
2022-08-28T00:46:48.544Z,18.60
2022-08-28T00:52:08.119Z,18.50
2022-08-28T00:57:15.114Z,18.56
2022-08-28T01:02:16.882Z,18.43
2022-08-28T01:07:19.016Z,18.47
2022-08-28T01:12:29.670Z,18.44
2022-08-28T01:17:34.312Z,18.37
2022-08-28T01:23:01.613Z,18.44
2022-08-28T01:28:06.846Z,18.32
2022-08-28T01:33:08.687Z,18.30
2022-08-28T01:38:11.220Z,18.26
2022-08-28T01:43:17.115Z,18.12
2022-08-28T01:48:21.142Z,18.21
2022-08-28T01:53:32.612Z,18.23
2022-08-28T01:58:38.288Z,18.15
2022-08-28T02:03:43.230Z,18.19
2022-08-28T02:08:45.979Z,18.21
2022-08-28T02:13:47.614Z,18.27
2022-08-28T02:18:53.233Z,18.25
2022-08-28T02:23:54.972Z,18.17
2022-08-28T02:28:56.634Z,18.17
2022-08-28T02:33:58.319Z,18.21
2022-08-28T02:39:00.102Z,18.24
2022-08-28T02:44:02.038Z,18.29
2022-08-28T02:49:03.683Z,18.30
2022-08-28T02:54:05.645Z,18.43
2022-08-28T02:59:07.433Z,18.41
2022-08-28T03:04:09.179Z,18.34
2022-08-28T03:09:10.881Z,18.21
2022-08-28T03:14:12.551Z,18.33
2022-08-28T03:19:14.484Z,18.34
2022-08-28T03:24:16.165Z,18.31
2022-08-28T03:29:17.922Z,18.21
2022-08-28T03:34:19.658Z,18.20
2022-08-28T03:39:21.334Z,18.16
2022-08-28T03:44:22.995Z,18.28
2022-08-28T03:49:24.640Z,18.37
2022-08-28T03:54:26.436Z,18.15
2022-08-28T03:59:31.627Z,18.23
2022-08-28T04:04:35.507Z,18.34
2022-08-28T04:09:37.221Z,18.31
2022-08-28T04:14:39.058Z,18.14
2022-08-28T04:19:40.747Z,18.10
2022-08-28T04:24:42.413Z,18.24
2022-08-28T04:29:44.039Z,18.27
2022-08-28T04:34:45.734Z,18.02
2022-08-28T04:39:47.383Z,18.07
2022-08-28T04:44:49.071Z,18.18
2022-08-28T04:49:50.790Z,18.28
2022-08-28T04:54:52.601Z,18.05
2022-08-28T04:59:54.342Z,18.02
2022-08-28T05:04:56.039Z,17.84
2022-08-28T05:09:57.780Z,17.78
2022-08-28T05:14:59.680Z,17.82
2022-08-28T05:20:02.500Z,17.91
2022-08-28T05:25:04.497Z,17.79
2022-08-28T05:30:07.271Z,17.74
2022-08-28T05:35:09.062Z,17.70
2022-08-28T05:40:10.994Z,17.76
2022-08-28T05:45:13.466Z,17.79
2022-08-28T05:50:15.382Z,17.76
2022-08-28T05:55:17.075Z,17.50
2022-08-28T06:00:18.731Z,17.77
2022-08-28T06:05:20.415Z,17.84
2022-08-28T06:10:22.124Z,17.96
2022-08-28T06:15:25.452Z,18.05
2022-08-28T06:20:27.122Z,17.61
2022-08-28T06:25:28.750Z,17.82
2022-08-28T06:30:31.011Z,18.11
2022-08-28T06:35:34.414Z,17.92
2022-08-28T06:40:41.895Z,18.36
2022-08-28T06:45:45.546Z,18.02
2022-08-28T06:50:49.931Z,18.38
2022-08-28T06:56:06.523Z,18.29
2022-08-28T07:01:16.733Z,18.23
2022-08-28T07:06:20.078Z,18.50
2022-08-28T07:11:26.309Z,18.30
2022-08-28T07:16:31.929Z,17.94
2022-08-28T07:21:38.703Z,17.58
2022-08-28T07:26:43.515Z,17.62
2022-08-28T07:31:49.224Z,17.76
2022-08-28T07:36:53.851Z,17.87
2022-08-28T07:41:55.782Z,18.03
2022-08-28T07:46:59.701Z,17.90
2022-08-28T07:52:01.972Z,17.82
2022-08-28T07:57:05.201Z,18.42
2022-08-28T08:02:07.141Z,18.12
2022-08-28T08:07:09.672Z,18.49
2022-08-28T08:12:13.728Z,18.45
2022-08-28T08:17:15.606Z,18.51
2022-08-28T08:22:17.671Z,18.98
2022-08-28T08:27:19.333Z,19.67
2022-08-28T08:32:20.975Z,19.91
2022-08-28T08:37:22.778Z,21.68
2022-08-28T08:42:27.646Z,21.09
2022-08-28T08:47:51.335Z,21.85
2022-08-28T08:53:17.485Z,22.86
2022-08-28T08:58:43.390Z,23.83
2022-08-28T09:03:55.879Z,22.78
2022-08-28T09:09:02.087Z,25.37
2022-08-28T09:14:32.052Z,22.89
2022-08-28T09:19:33.992Z,22.51
2022-08-28T09:24:36.989Z,22.12
2022-08-28T09:29:43.348Z,23.15
2022-08-28T09:35:24.616Z,24.26
2022-08-28T09:40:50.291Z,22.75
2022-08-28T09:46:03.030Z,23.23
2022-08-28T09:51:08.069Z,22.01
2022-08-28T09:56:32.091Z,21.75
2022-08-28T10:01:45.051Z,22.69
2022-08-28T10:07:13.034Z,26.26
2022-08-28T10:12:32.680Z,26.05
2022-08-28T10:18:19.936Z,26.86
2022-08-28T10:23:34.841Z,28.04
2022-08-28T10:29:11.613Z,28.92
2022-08-28T10:34:15.966Z,25.55
2022-08-28T10:39:42.728Z,24.01
2022-08-28T10:44:58.520Z,24.71
2022-08-28T10:50:19.108Z,24.67
2022-08-28T10:55:44.743Z,25.66
2022-08-28T11:00:47.183Z,27.98
2022-08-28T11:05:54.678Z,27.40
2022-08-28T11:11:00.406Z,29.11
2022-08-28T11:16:11.928Z,28.05
2022-08-28T11:21:24.239Z,24.73
2022-08-28T11:26:40.947Z,25.89
2022-08-28T11:31:42.662Z,24.43
2022-08-28T11:36:44.251Z,24.97
2022-08-28T11:42:24.686Z,26.66
2022-08-28T11:47:45.346Z,25.99
2022-08-28T11:52:59.362Z,25.58
2022-08-28T11:58:25.085Z,26.38
2022-08-28T12:03:26.700Z,27.18
2022-08-28T12:09:01.923Z,27.59
2022-08-28T12:14:03.662Z,25.25
2022-08-28T12:19:05.474Z,26.30
2022-08-28T12:24:21.603Z,27.43
2022-08-28T12:29:34.619Z,27.22
2022-08-28T12:34:50.144Z,26.73
2022-08-28T12:39:52.849Z,25.31
2022-08-28T12:45:00.358Z,24.51
2022-08-28T12:50:41.068Z,23.33
2022-08-28T12:55:44.699Z,24.82
2022-08-28T13:00:54.912Z,26.03
2022-08-28T13:06:07.514Z,25.48
2022-08-28T13:11:09.871Z,23.92
2022-08-28T13:16:33.327Z,24.27
2022-08-28T13:21:51.995Z,25.51
2022-08-28T13:27:07.079Z,25.32
2022-08-28T13:32:15.293Z,25.91
2022-08-28T13:37:56.355Z,24.61
2022-08-28T13:43:02.924Z,25.24
2022-08-28T13:48:04.948Z,24.96
2022-08-28T13:53:07.589Z,25.43
2022-08-28T13:58:09.492Z,25.17
2022-08-28T14:03:29.536Z,25.52
2022-08-28T14:08:31.208Z,26.12
2022-08-28T14:13:32.950Z,26.29
2022-08-28T14:18:34.754Z,26.33
2022-08-28T14:23:36.385Z,25.67
2022-08-28T14:28:38.139Z,25.03
2022-08-28T14:33:39.814Z,25.73
2022-08-28T14:38:43.569Z,25.82
2022-08-28T14:43:45.552Z,25.34
2022-08-28T14:48:48.179Z,24.77
2022-08-28T14:53:49.914Z,25.23
2022-08-28T14:58:51.685Z,25.35
2022-08-28T15:03:53.391Z,24.87
2022-08-28T15:08:55.186Z,24.48
2022-08-28T15:13:58.518Z,24.36
2022-08-28T15:19:01.665Z,23.80
2022-08-28T15:24:04.732Z,24.14
2022-08-28T15:29:07.449Z,24.12
2022-08-28T15:34:13.484Z,23.83
2022-08-28T15:39:34.091Z,23.51
2022-08-28T15:44:36.102Z,23.77
2022-08-28T15:49:43.626Z,23.74
2022-08-28T15:54:51.493Z,23.65
2022-08-28T15:59:53.126Z,23.50
2022-08-28T16:04:54.866Z,23.11
2022-08-28T16:09:56.539Z,22.95
2022-08-28T16:14:58.168Z,22.88
2022-08-28T16:19:59.796Z,22.86
2022-08-28T16:25:01.443Z,22.91
2022-08-28T16:30:04.575Z,22.70
2022-08-28T16:35:07.397Z,22.64
2022-08-28T16:40:10.644Z,22.69
2022-08-28T16:45:12.485Z,22.49
2022-08-28T16:50:14.323Z,22.68
2022-08-28T16:55:16.515Z,22.54
2022-08-28T17:00:19.199Z,22.36
2022-08-28T17:05:21.714Z,22.21
2022-08-28T17:10:25.211Z,22.07
2022-08-28T17:15:27.149Z,22.06
2022-08-28T17:20:47.222Z,21.97
2022-08-28T17:25:48.866Z,21.61
2022-08-28T17:30:50.515Z,21.62
2022-08-28T17:35:55.157Z,21.45
2022-08-28T17:40:56.813Z,21.02
2022-08-28T17:45:58.490Z,20.88
2022-08-28T17:51:01.821Z,20.69
2022-08-28T17:56:05.731Z,20.45
2022-08-28T18:01:07.534Z,20.45
2022-08-28T18:06:09.159Z,20.34
2022-08-28T18:11:13.488Z,20.16
2022-08-28T18:16:15.821Z,20.14
2022-08-28T18:21:17.514Z,20.03
2022-08-28T18:26:19.255Z,19.87
2022-08-28T18:31:21.047Z,19.69
2022-08-28T18:36:23.329Z,19.09
2022-08-28T18:41:43.004Z,18.79
2022-08-28T18:46:47.076Z,18.72
2022-08-28T18:51:48.760Z,18.62
2022-08-28T18:56:50.561Z,18.44
2022-08-28T19:01:52.412Z,18.29
2022-08-28T19:06:54.308Z,18.16
2022-08-28T19:11:56.331Z,18.01
2022-08-28T19:16:58.044Z,17.71
2022-08-28T19:22:00.474Z,17.46
2022-08-28T19:27:02.775Z,17.58
2022-08-28T19:32:05.692Z,17.69
2022-08-28T19:37:07.400Z,17.42
2022-08-28T19:42:09.047Z,17.13
2022-08-28T19:47:10.894Z,16.94
2022-08-28T19:52:12.754Z,16.90
2022-08-28T19:57:15.223Z,16.94
2022-08-28T20:02:22.910Z,17.00
2022-08-28T20:07:25.052Z,16.76
2022-08-28T20:12:26.881Z,16.76
2022-08-28T20:17:28.564Z,16.42
2022-08-28T20:22:31.918Z,16.50
2022-08-28T20:27:34.251Z,16.21
2022-08-28T20:32:36.545Z,16.05
2022-08-28T20:37:45.246Z,16.17
2022-08-28T20:42:48.080Z,16.18
2022-08-28T20:47:49.929Z,16.13
2022-08-28T20:52:51.783Z,15.96
2022-08-28T20:57:53.415Z,15.95
2022-08-28T21:02:55.076Z,15.94
2022-08-28T21:07:57.243Z,15.77
2022-08-28T21:12:58.999Z,15.69
2022-08-28T21:18:02.030Z,15.59
2022-08-28T21:23:05.380Z,15.51
2022-08-28T21:28:07.407Z,15.36
2022-08-28T21:33:09.332Z,15.45
2022-08-28T21:38:11.044Z,15.40
2022-08-28T21:43:12.729Z,15.34
2022-08-28T21:48:14.466Z,15.29
2022-08-28T21:53:16.606Z,14.92
2022-08-28T21:58:22.956Z,15.11
2022-08-28T22:03:26.858Z,15.09
2022-08-28T22:08:28.642Z,14.94
2022-08-28T22:13:30.302Z,15.05
2022-08-28T22:18:34.192Z,14.93
2022-08-28T22:23:37.314Z,14.67
2022-08-28T22:28:39.179Z,14.70
2022-08-28T22:33:41.018Z,14.67
2022-08-28T22:38:47.008Z,14.75
2022-08-28T22:43:55.236Z,14.86
2022-08-28T22:48:56.860Z,14.71
2022-08-28T22:53:58.734Z,14.64
2022-08-28T22:59:00.498Z,14.63
2022-08-28T23:04:02.946Z,14.70
2022-08-28T23:09:04.663Z,14.64
2022-08-28T23:14:06.313Z,14.71
2022-08-28T23:19:08.998Z,14.62
2022-08-28T23:24:16.124Z,14.70
2022-08-28T23:29:17.823Z,14.54
2022-08-28T23:34:19.586Z,14.33
2022-08-28T23:39:21.422Z,14.52
2022-08-28T23:44:23.186Z,14.37
2022-08-28T23:49:27.037Z,14.22
2022-08-28T23:54:28.848Z,14.21
2022-08-28T23:59:31.192Z,14.06
